Time;durP1;ratioP1;P1;durP2;ratioP2;P2;SDS_P1;SDS_P2;PMS_P1;PMS_P2;Temp;Humidity;BMP_temperature;BMP_pressure;BME280_temperature;BME280_humidity;BME280_pressure;Samples;Min_cycle;Max_cycle;Signal;HPM_P1;HPM_P2
2022/12/07 05:30:41;;;;;;;;;35.25;30.00;;;;;4.42;75.47;101686.16;5085151;27;45545;-73
2022/12/07 05:33:06;;;;;;;;;33.25;23.50;;;;;4.38;75.97;101673.78;5035619;28;45291;-74
2022/12/07 05:35:31;;;;;;;;;19.75;17.50;;;;;4.49;75.55;101685.22;5035490;28;45501;-73
2022/12/07 05:37:58;;;;;;;;;31.00;26.25;;;;;4.60;75.63;101679.81;5033501;28;45974;-74
2022/12/07 05:40:23;;;;;;;;;28.50;28.25;;;;;4.64;74.89;101681.56;5034565;28;45277;-73
2022/12/07 05:42:48;;;;;;;;;34.75;27.75;;;;;4.70;74.85;101682.41;5034321;28;45649;-73
2022/12/07 05:45:14;;;;;;;;;24.75;24.75;;;;;4.79;74.67;101684.13;5034552;28;45292;-73
2022/12/07 05:47:39;;;;;;;;;33.25;29.75;;;;;4.78;74.13;101683.22;5032617;28;47267;-73
2022/12/07 05:50:06;;;;;;;;;32.00;31.25;;;;;4.73;73.85;101690.38;5034442;28;45310;-73
2022/12/07 05:52:31;;;;;;;;;32.00;30.50;;;;;4.69;74.28;101680.63;5035647;28;45330;-74
2022/12/07 05:54:57;;;;;;;;;37.50;29.75;;;;;4.72;74.22;101677.97;5034377;28;45323;-72
2022/12/07 05:57:22;;;;;;;;;31.25;26.00;;;;;4.72;74.18;101675.31;5034152;28;45528;-75
2022/12/07 05:59:47;;;;;;;;;31.75;29.50;;;;;4.71;74.13;101670.91;5034401;28;45322;-73
2022/12/07 06:02:15;;;;;;;;;27.50;26.00;;;;;4.76;73.84;101682.38;5034062;28;45374;-74
2022/12/07 06:04:44;;;;;;;;;25.25;22.00;;;;;4.80;73.63;101681.47;5034513;28;45331;-72
2022/12/07 06:07:11;;;;;;;;;40.25;33.50;;;;;4.78;74.10;101672.59;5032845;28;47729;-73
2022/12/07 06:09:37;;;;;;;;;28.75;28.00;;;;;4.69;74.02;101661.16;5032657;28;45328;-74
2022/12/07 06:14:48;;;;;;;;;42.00;31.75;;;;;4.81;74.40;101685.00;5030094;28;45586;-74
2022/12/07 06:17:14;;;;;;;;;26.75;25.25;;;;;4.69;74.52;101662.03;5033423;28;46358;-74
2022/12/07 06:19:40;;;;;;;;;35.75;34.00;;;;;4.83;74.31;101677.91;5034143;28;45382;-74
2022/12/07 06:22:05;;;;;;;;;30.50;27.25;;;;;4.89;74.30;101680.50;5034158;28;45422;-72
2022/12/07 06:24:32;;;;;;;;;29.25;29.00;;;;;4.85;73.99;101671.66;5033941;28;45329;-73
2022/12/07 06:26:58;;;;;;;;;37.00;31.25;;;;;4.81;74.44;101675.25;5034270;28;45430;-74
2022/12/07 06:29:24;;;;;;;;;38.75;31.75;;;;;4.74;74.44;101664.69;5034062;28;45502;-75
2022/12/07 06:31:49;;;;;;;;;34.25;34.25;;;;;4.77;74.18;101684.13;5045098;28;45398;-75
2022/12/07 06:34:17;;;;;;;;;34.50;31.00;;;;;4.74;74.76;101678.84;5053515;28;45254;-73
2022/12/07 06:36:43;;;;;;;;;36.00;34.75;;;;;4.56;74.55;101660.38;5054049;28;45461;-75
2022/12/07 06:39:08;;;;;;;;;36.25;34.00;;;;;4.55;75.30;101670.13;5054456;28;45245;-74
2022/12/07 06:41:36;;;;;;;;;39.25;34.25;;;;;4.59;75.05;101681.63;5054152;28;45506;-74
2022/12/07 06:44:02;;;;;;;;;35.00;30.75;;;;;4.61;75.02;101681.59;5054031;28;45381;-74
2022/12/07 06:46:27;;;;;;;;;29.25;25.50;;;;;4.64;75.09;101678.91;5053997;28;45463;-72
2022/12/07 06:48:53;;;;;;;;;32.00;26.50;;;;;4.64;74.84;101684.22;5054055;28;45267;-75
2022/12/07 06:51:18;;;;;;;;;25.00;23.00;;;;;4.62;75.38;101684.22;5036558;28;45332;-74
2022/12/07 06:53:44;;;;;;;;;32.50;27.50;;;;;4.52;75.41;101674.56;5054927;28;45738;-74
2022/12/07 06:56:09;;;;;;;;;23.50;23.50;;;;;4.57;75.71;101684.28;5053842;28;45537;-71
2022/12/07 06:58:35;;;;;;;;;39.50;28.00;;;;;4.56;75.42;101679.84;5054166;28;45303;-71
2022/12/07 07:01:00;;;;;;;;;32.00;28.75;;;;;4.61;75.19;101671.84;5053385;28;45765;-78
2022/12/07 07:03:26;;;;;;;;;30.50;26.00;;;;;4.67;75.64;101679.78;5053493;28;45245;-71
2022/12/07 07:05:51;;;;;;;;;25.75;19.00;;;;;4.77;75.20;101680.59;5053984;28;45906;-70
2022/12/07 07:08:16;;;;;;;;;34.00;30.25;;;;;4.81;74.47;101685.00;5053952;28;45550;-71
2022/12/07 07:10:42;;;;;;;;;34.00;26.75;;;;;4.79;75.13;101678.81;5053928;28;45570;-73
2022/12/07 07:13:08;;;;;;;;;28.25;26.50;;;;;4.81;74.98;101687.66;5035245;28;45652;-73
2022/12/07 07:15:34;;;;;;;;;31.50;28.00;;;;;4.82;74.90;101678.78;5051618;28;45505;-72
2022/12/07 07:17:59;;;;;;;;;27.50;23.25;;;;;4.86;74.62;101683.16;5054165;28;45382;-72
2022/12/07 07:20:25;;;;;;;;;29.50;27.75;;;;;4.85;74.42;101684.06;5054354;28;45760;-72
2022/12/07 07:22:54;;;;;;;;;32.75;28.75;;;;;4.86;74.54;101688.50;5056961;28;45206;-72
2022/12/07 07:25:19;;;;;;;;;27.75;23.25;;;;;4.80;74.84;101688.53;5060622;28;45422;-72
2022/12/07 07:27:44;;;;;;;;;11.75;8.75;;;;;4.79;74.77;101686.78;5060980;28;45305;-72
2022/12/07 07:30:10;;;;;;;;;28.00;28.00;;;;;4.82;74.83;101684.09;5058532;28;45294;-73
2022/12/07 07:32:36;;;;;;;;;30.50;28.25;;;;;4.83;74.93;101685.88;5057768;28;45237;-71
2022/12/07 07:35:02;;;;;;;;;30.75;27.00;;;;;4.84;74.78;101677.91;5059579;28;46362;-74
2022/12/07 07:37:27;;;;;;;;;26.75;25.00;;;;;4.73;74.87;101666.47;5058416;28;45641;-72
2022/12/07 07:39:53;;;;;;;;;27.25;23.25;;;;;4.85;74.65;101682.28;5056440;28;45368;-72
2022/12/07 07:42:19;;;;;;;;;30.00;29.25;;;;;4.77;74.96;101670.84;5028544;28;45681;-73
2022/12/07 07:44:44;;;;;;;;;27.50;25.50;;;;;4.77;74.63;101681.47;5041851;28;46285;-73
2022/12/07 07:47:09;;;;;;;;;27.00;24.25;;;;;4.72;74.80;101674.44;5030700;28;45381;-74
2022/12/07 07:49:35;;;;;;;;;29.25;26.25;;;;;4.78;74.92;101677.03;5053359;28;45330;-72
2022/12/07 07:52:00;;;;;;;;;29.00;27.00;;;;;4.84;75.13;101679.69;5048132;28;45422;-72
2022/12/07 07:54:25;;;;;;;;;24.25;24.25;;;;;4.87;74.75;101687.59;5039483;28;46007;-72
2022/12/07 07:56:52;;;;;;;;;31.25;29.25;;;;;4.89;74.79;101688.47;5039807;28;45541;-70
2022/12/07 07:59:18;;;;;;;;;14.00;10.25;;;;;4.67;74.97;101662.97;5045281;28;45509;-73
2022/12/07 08:01:43;;;;;;;;;33.75;29.00;;;;;4.87;74.73;101690.25;5048668;28;45485;-73
2022/12/07 08:04:08;;;;;;;;;28.50;28.00;;;;;4.83;74.99;101691.19;5047692;28;45473;-71
2022/12/07 08:06:34;;;;;;;;;28.75;24.50;;;;;4.92;74.79;101697.31;5047064;28;45552;-71
2022/12/07 08:08:59;;;;;;;;;29.00;27.25;;;;;4.95;74.83;101693.72;5042435;28;45549;-73
2022/12/07 08:11:25;;;;;;;;;26.75;26.50;;;;;5.01;74.83;101700.81;5040326;28;45538;-72
2022/12/07 08:13:50;;;;;;;;;27.00;26.00;;;;;4.99;74.74;101689.28;5040639;28;45998;-70
2022/12/07 08:16:17;;;;;;;;;32.25;27.75;;;;;5.10;74.78;101700.72;5039422;28;45375;-71
2022/12/07 08:18:43;;;;;;;;;29.25;25.25;;;;;5.10;74.07;101695.41;5047816;28;45304;-73
2022/12/07 08:21:12;;;;;;;;;26.00;26.00;;;;;5.12;74.26;101697.13;5049780;28;45320;-72
2022/12/07 08:23:37;;;;;;;;;32.50;29.25;;;;;5.13;74.66;101698.03;5055721;28;45503;-71
2022/12/07 08:26:05;;;;;;;;;32.75;30.00;;;;;5.23;74.30;101705.03;5056423;28;45387;-72
2022/12/07 08:28:31;;;;;;;;;32.00;27.00;;;;;5.18;74.78;101691.78;5056392;28;45243;-74
2022/12/07 08:31:01;;;;;;;;;28.75;28.75;;;;;5.16;74.46;101680.28;5037882;28;45348;-73
2022/12/07 08:33:27;;;;;;;;;26.50;26.50;;;;;5.32;74.17;101697.84;5055667;28;46098;-73
2022/12/07 08:35:54;;;;;;;;;26.75;25.25;;;;;5.47;73.77;101719.88;5055871;28;45416;-72
2022/12/07 08:38:19;;;;;;;;;34.00;30.00;;;;;5.21;73.88;101662.50;5056752;28;45280;-75
2022/12/07 08:40:52;;;;;;;;;32.75;32.75;;;;;5.25;73.50;101674.00;5058254;28;45414;-74
2022/12/07 08:43:18;;;;;;;;;28.50;25.00;;;;;5.43;73.65;101700.44;5040963;28;47062;-75
2022/12/07 08:45:43;;;;;;;;;29.25;25.00;;;;;5.35;73.77;101678.34;5059454;28;45182;-74
2022/12/07 08:48:13;;;;;;;;;28.50;27.50;;;;;5.56;73.45;101711.81;5038636;28;45367;-74
2022/12/07 08:50:39;;;;;;;;;25.25;24.50;;;;;5.67;73.26;101723.22;5056357;28;45280;-74
2022/12/07 08:53:06;;;;;;;;;26.00;26.00;;;;;5.50;73.03;101690.59;5057639;28;45312;-73
2022/12/07 08:55:33;;;;;;;;;31.00;28.75;;;;;5.70;72.64;101718.75;5056850;28;45513;-73
2022/12/07 08:58:00;;;;;;;;;25.00;23.75;;;;;5.58;73.37;101691.41;5057143;28;45154;-73
2022/12/07 09:00:26;;;;;;;;;31.75;28.25;;;;;5.75;73.11;101712.50;5055721;28;45370;-73
2022/12/07 09:02:53;;;;;;;;;31.50;27.25;;;;;5.78;72.79;101716.03;5055259;28;45648;-74
2022/12/07 09:05:19;;;;;;;;;31.00;25.75;;;;;5.78;72.67;101712.50;5055709;28;45490;-74
2022/12/07 09:07:49;;;;;;;;;34.75;30.25;;;;;5.82;72.55;101715.09;5056379;28;45342;-74
2022/12/07 09:10:14;;;;;;;;;33.00;27.75;;;;;5.74;72.77;101700.09;5056322;28;45585;-74
2022/12/07 09:12:40;;;;;;;;;36.50;25.25;;;;;5.70;72.79;101708.09;5037998;28;47346;-72
2022/12/07 09:15:06;;;;;;;;;26.00;25.50;;;;;5.71;72.58;101712.53;5051195;28;45312;-73
2022/12/07 09:17:35;;;;;;;;;28.75;25.25;;;;;5.55;72.83;101697.63;5055626;28;45302;-74
2022/12/07 09:20:01;;;;;;;;;31.75;25.50;;;;;5.64;72.98;101720.59;5056057;28;45390;-74
2022/12/07 09:22:31;;;;;;;;;21.75;20.00;;;;;5.61;73.42;101712.66;5055846;28;46320;-73
2022/12/07 09:24:58;;;;;;;;;24.50;24.50;;;;;5.69;73.60;101710.81;5055432;28;45253;-72
2022/12/07 09:27:23;;;;;;;;;39.50;25.50;;;;;5.65;73.06;101701.97;5038395;28;45468;-74
2022/12/07 09:29:49;;;;;;;;;25.50;24.25;;;;;5.68;72.99;101714.38;5055738;28;45692;-73
2022/12/07 09:32:14;;;;;;;;;31.00;27.50;;;;;5.66;73.13;101722.34;5055359;28;46224;-72
2022/12/07 09:34:40;;;;;;;;;32.75;24.00;;;;;5.72;73.02;101721.41;5055475;28;45319;-73
2022/12/07 09:37:06;;;;;;;;;35.00;28.00;;;;;5.76;73.40;101716.94;5055713;28;45347;-73
2022/12/07 09:39:31;;;;;;;;;28.00;24.25;;;;;5.88;73.53;101714.16;5055914;28;45377;-74
2022/12/07 09:41:58;;;;;;;;;27.75;25.75;;;;;5.99;72.83;101713.16;5055795;28;45407;-72
2022/12/07 09:44:26;;;;;;;;;29.25;24.50;;;;;6.03;72.19;101711.34;5055341;28;45246;-72
2022/12/07 09:46:53;;;;;;;;;29.50;29.25;;;;;6.10;72.41;101706.81;5035835;28;45454;-75
2022/12/07 09:49:25;;;;;;;;;29.75;26.25;;;;;6.17;72.85;101698.75;5055365;28;45416;-73
2022/12/07 09:52:08;;;;;;;;;28.00;26.75;;;;;6.36;72.46;101705.59;5037385;28;47059;-72
2022/12/07 09:54:40;;;;;;;;;26.25;25.75;;;;;6.53;71.57;101697.38;5056859;28;45282;-73
2022/12/07 09:57:05;;;;;;;;;27.00;24.50;;;;;6.58;70.84;101697.28;5055995;28;45529;-72
2022/12/07 09:59:31;;;;;;;;;23.00;20.25;;;;;6.62;70.97;101688.38;5055353;28;45528;-75
2022/12/07 10:02:33;;;;;;;;;19.50;17.75;;;;;6.65;70.49;101702.50;5055007;28;46311;-75
2022/12/07 10:04:59;;;;;;;;;25.00;18.50;;;;;6.63;70.40;101679.47;5055585;28;45372;-73
2022/12/07 10:07:25;;;;;;;;;25.25;22.25;;;;;6.73;70.98;101689.94;5055912;28;45370;-73
2022/12/07 10:09:50;;;;;;;;;25.00;23.50;;;;;6.80;71.08;101688.09;5055581;28;45330;-72
2022/12/07 10:12:15;;;;;;;;;22.00;20.75;;;;;6.83;70.68;101685.38;5056659;28;46069;-74
2022/12/07 10:15:02;;;;;;;;;25.25;23.00;;;;;6.83;70.16;101696.03;5054326;28;45422;-74
2022/12/07 10:17:30;;;;;;;;;22.00;19.50;;;;;6.83;70.96;101690.69;5058045;28;45360;-73
2022/12/07 10:20:14;;;;;;;;;27.00;25.50;;;;;6.69;70.75;101672.25;5058541;28;45270;-75
2022/12/07 10:22:53;;;;;;;;;26.75;24.50;;;;;6.76;70.79;101686.38;5039857;28;47522;-73
2022/12/07 10:25:20;;;;;;;;;29.25;27.00;;;;;6.73;70.96;101687.28;5055500;28;45344;-74
2022/12/07 10:27:59;;;;;;;;;29.00;25.00;;;;;6.64;71.00;101682.09;5054997;28;45381;-74
2022/12/07 10:30:24;;;;;;;;;26.50;23.25;;;;;6.69;70.53;101687.38;5055304;28;45481;-73
2022/12/07 10:32:49;;;;;;;;;34.25;28.00;;;;;6.72;70.59;101679.34;5054752;28;46276;-73
2022/12/07 10:35:28;;;;;;;;;30.75;28.75;;;;;6.73;70.91;101671.28;5055659;28;45252;-72
2022/12/07 10:37:55;;;;;;;;;33.00;26.75;;;;;6.78;70.86;101672.13;5056062;28;45596;-72
2022/12/07 10:40:29;;;;;;;;;28.50;25.50;;;;;6.86;70.62;101671.13;5055346;28;45312;-73
2022/12/07 10:43:17;;;;;;;;;30.25;25.00;;;;;6.96;70.39;101664.75;5055455;28;46064;-73
2022/12/07 10:46:07;;;;;;;;;28.50;25.75;;;;;7.03;70.79;101655.72;5056096;28;45459;-74
2022/12/07 10:49:00;;;;;;;;;32.50;29.75;;;;;6.96;70.34;101657.63;5055484;28;45264;-74
2022/12/07 10:51:31;;;;;;;;;30.25;26.50;;;;;6.89;70.94;101647.94;5055289;28;45380;-73
2022/12/07 10:54:12;;;;;;;;;24.75;21.75;;;;;6.93;71.17;101652.34;5056051;28;46012;-73
2022/12/07 10:57:05;;;;;;;;;32.75;30.25;;;;;7.05;70.99;101632.59;5043569;28;45273;-72
2022/12/07 11:00:10;;;;;;;;;29.00;29.00;;;;;7.07;71.07;101623.66;5058619;28;45474;-74
2022/12/07 11:03:13;;;;;;;;;29.25;26.50;;;;;7.17;70.64;101619.03;5058079;28;45465;-73
2022/12/07 11:06:05;;;;;;;;;28.75;28.50;;;;;7.36;70.28;101614.25;5058331;28;45339;-74
2022/12/07 11:08:52;;;;;;;;;31.50;27.50;;;;;7.48;69.48;101614.03;5059046;28;45370;-74
2022/12/07 11:11:29;;;;;;;;;25.00;23.25;;;;;7.51;69.14;101614.84;5059240;28;45292;-73
2022/12/07 11:14:10;;;;;;;;;33.75;31.00;;;;;7.50;69.20;101609.53;5055244;28;45260;-73
2022/12/07 11:17:23;;;;;;;;;29.50;26.75;;;;;7.54;69.45;101611.22;5058911;28;45392;-72
2022/12/07 11:20:27;;;;;;;;;26.75;26.75;;;;;7.52;69.05;101600.59;4986939;28;45524;-74
2022/12/07 11:23:03;;;;;;;;;40.75;29.50;;;;;7.52;69.26;101592.59;5027665;28;45340;-73
2022/12/07 11:25:42;;;;;;;;;28.00;25.75;;;;;7.53;69.00;101598.78;5058151;28;45546;-73
2022/12/07 11:28:30;;;;;;;;;38.75;33.75;;;;;7.43;69.78;101581.19;5040024;28;46665;-72
2022/12/07 11:31:14;;;;;;;;;32.75;31.25;;;;;7.40;69.90;101584.81;5058194;28;45364;-74
2022/12/07 11:33:46;;;;;;;;;32.75;29.00;;;;;7.44;70.21;101585.63;5058626;28;45457;-72
2022/12/07 11:36:33;;;;;;;;;29.00;27.25;;;;;7.42;70.49;101576.78;5058524;28;45428;-74
2022/12/07 11:39:04;;;;;;;;;28.00;27.75;;;;;7.42;70.49;101568.78;5057858;28;45328;-72
2022/12/07 11:41:38;;;;;;;;;30.25;27.00;;;;;7.50;70.36;101575.72;5057159;28;45407;-72
2022/12/07 11:44:38;;;;;;;;;36.50;30.00;;;;;7.51;70.11;101565.91;5057492;28;45293;-73
2022/12/07 11:47:12;;;;;;;;;33.25;30.50;;;;;7.53;70.15;101572.13;5052592;28;45335;-73
2022/12/07 11:49:47;;;;;;;;;32.75;29.25;;;;;7.50;70.45;101557.03;5057445;28;45489;-73
2022/12/07 11:52:19;;;;;;;;;33.00;32.25;;;;;7.60;70.73;101563.94;5039389;28;45358;-74
2022/12/07 11:54:47;;;;;;;;;31.25;28.50;;;;;7.66;70.59;101562.94;5057262;28;45406;-73
2022/12/07 11:57:35;;;;;;;;;28.50;27.50;;;;;7.71;70.60;101552.19;5056795;28;45576;-73
2022/12/07 12:00:04;;;;;;;;;28.75;24.25;;;;;7.78;69.88;101556.47;5057067;28;45404;-73
2022/12/07 12:02:43;;;;;;;;;25.00;25.00;;;;;7.81;69.60;101551.06;5057408;28;45359;-73
2022/12/07 12:05:16;;;;;;;;;26.25;24.25;;;;;7.91;69.73;101547.31;5057826;28;45299;-74
2022/12/07 12:07:44;;;;;;;;;26.50;23.50;;;;;7.90;69.11;101542.88;5057140;28;45328;-74
2022/12/07 12:10:39;;;;;;;;;26.00;23.25;;;;;7.94;69.42;101537.41;5056154;28;45421;-75
2022/12/07 12:13:32;;;;;;;;;23.50;22.00;;;;;7.94;69.19;101532.06;5039015;28;45513;-73
2022/12/07 12:16:17;;;;;;;;;33.50;28.75;;;;;7.96;69.24;101540.06;5043150;28;45343;-73
2022/12/07 12:18:56;;;;;;;;;35.50;29.50;;;;;7.90;69.22;101530.41;5039344;28;45522;-74
2022/12/07 12:21:32;;;;;;;;;25.75;25.75;;;;;7.92;69.00;101530.34;5057711;28;45746;-73
2022/12/07 12:24:09;;;;;;;;;35.00;34.50;;;;;7.96;69.52;101532.03;5057138;28;45438;-73
2022/12/07 12:26:37;;;;;;;;;31.00;27.00;;;;;8.06;69.31;101530.94;5058159;28;45404;-73
2022/12/07 12:29:05;;;;;;;;;28.50;28.50;;;;;8.21;69.13;101525.22;5058828;28;45382;-71
2022/12/07 12:31:41;;;;;;;;;27.75;24.25;;;;;8.38;68.14;101534.66;5058531;28;45446;-73
2022/12/07 12:34:31;;;;;;;;;30.00;23.25;;;;;8.56;68.19;101523.53;5058586;28;45431;-73
2022/12/07 12:36:56;;;;;;;;;29.50;29.50;;;;;8.69;67.51;101528.50;5060597;28;45377;-74
2022/12/07 12:39:22;;;;;;;;;26.50;25.50;;;;;8.80;66.79;101514.88;5060951;28;45348;-72
2022/12/07 12:44:17;;;;;;;;;27.00;22.00;;;;;8.92;66.50;101516.34;5060727;28;45383;-73
2022/12/07 12:46:52;;;;;;;;;26.00;24.50;;;;;8.99;65.59;101504.56;5057960;28;45343;-74
2022/12/07 12:49:20;;;;;;;;;34.75;30.75;;;;;9.07;66.01;101502.56;5056483;28;45255;-72
2022/12/07 12:51:46;;;;;;;;;23.25;21.25;;;;;9.12;65.97;101492.59;5056890;28;46381;-74
2022/12/07 12:54:18;;;;;;;;;31.00;27.75;;;;;9.21;65.61;101502.16;5056773;28;45497;-73
2022/12/07 12:57:07;;;;;;;;;25.25;22.00;;;;;9.23;65.68;101495.84;5056863;28;45165;-73
2022/12/07 12:59:41;;;;;;;;;25.75;23.25;;;;;9.26;65.33;101494.91;5057336;28;45635;-74
2022/12/07 13:02:34;;;;;;;;;19.50;18.50;;;;;9.20;64.77;101487.91;5056856;28;46033;-73
2022/12/07 13:05:02;;;;;;;;;32.50;24.00;;;;;9.18;65.53;101483.53;5057054;28;45407;-73
2022/12/07 13:07:52;;;;;;;;;30.25;23.25;;;;;9.12;65.19;101484.56;5038439;28;45396;-73
2022/12/07 13:10:23;;;;;;;;;31.00;28.25;;;;;9.17;65.64;101479.09;5057506;28;45465;-71
2022/12/07 13:13:18;;;;;;;;;24.50;24.50;;;;;9.21;65.26;101478.94;5040605;28;47477;-72
2022/12/07 13:16:16;;;;;;;;;22.00;22.00;;;;;9.25;65.59;101477.09;5043739;28;45572;-74
2022/12/07 13:18:44;;;;;;;;;19.75;19.75;;;;;9.25;65.43;101469.94;5022630;28;45324;-72
2022/12/07 13:21:09;;;;;;;;;29.00;24.75;;;;;9.34;64.79;101476.81;5058680;28;45281;-72
2022/12/07 13:23:46;;;;;;;;;24.00;24.00;;;;;9.35;64.06;101474.09;5058932;28;45977;-73
2022/12/07 13:26:18;;;;;;;;;26.50;23.75;;;;;9.35;63.99;101475.91;5058925;28;45315;-72
2022/12/07 13:28:45;;;;;;;;;20.75;20.00;;;;;9.34;64.92;101471.47;5056452;28;45439;-75
2022/12/07 13:31:40;;;;;;;;;20.25;20.25;;;;;9.24;64.53;101460.16;5056296;28;45269;-73
2022/12/07 13:34:27;;;;;;;;;27.50;23.50;;;;;9.34;64.56;101475.03;5056737;28;45499;-72
2022/12/07 13:36:53;;;;;;;;;29.00;24.75;;;;;9.39;64.37;101464.16;5038116;28;45412;-73
2022/12/07 13:39:25;;;;;;;;;21.50;20.75;;;;;9.40;64.69;101461.44;5056657;28;45340;-73
2022/12/07 13:41:58;;;;;;;;;31.00;27.00;;;;;9.37;63.74;101463.31;5055889;28;46413;-72
2022/12/07 13:44:26;;;;;;;;;28.50;25.25;;;;;9.32;63.90;101444.75;5056041;28;46210;-73
2022/12/07 13:46:52;;;;;;;;;27.25;26.00;;;;;9.31;64.29;101450.13;5055925;28;45648;-73
2022/12/07 13:49:19;;;;;;;;;33.50;30.00;;;;;9.29;64.34;101449.28;5056242;28;45660;-74
2022/12/07 13:51:44;;;;;;;;;28.25;27.50;;;;;9.23;64.56;101442.34;5055895;28;45504;-73
2022/12/07 13:54:12;;;;;;;;;35.25;30.50;;;;;9.21;64.31;101441.50;5055514;28;45470;-73
2022/12/07 13:56:39;;;;;;;;;26.00;21.75;;;;;9.18;64.30;101438.94;5055236;28;45249;-72
2022/12/07 13:59:21;;;;;;;;;25.75;25.75;;;;;9.01;64.01;101430.53;5055952;28;45352;-73
2022/12/07 14:01:49;;;;;;;;;26.00;23.50;;;;;8.95;64.69;101428.88;5055362;28;46004;-73
2022/12/07 14:04:32;;;;;;;;;28.75;25.50;;;;;8.92;64.94;101431.66;5055683;28;47212;-72
2022/12/07 14:06:58;;;;;;;;;25.00;25.00;;;;;8.87;65.22;101430.88;5055614;28;45258;-73
2022/12/07 14:09:26;;;;;;;;;35.00;30.75;;;;;8.75;65.84;101425.03;5055986;28;45288;-73
2022/12/07 14:11:55;;;;;;;;;28.50;25.00;;;;;8.67;66.32;101422.56;5055232;28;45597;-74
2022/12/07 14:14:25;;;;;;;;;31.00;29.25;;;;;8.64;66.51;101415.50;5051452;28;45349;-73
2022/12/07 14:16:59;;;;;;;;;31.50;27.75;;;;;8.69;66.63;101413.56;5055020;28;45729;-73
2022/12/07 14:19:40;;;;;;;;;26.00;25.50;;;;;8.68;66.20;101416.25;5055938;28;45327;-74
2022/12/07 14:22:08;;;;;;;;;24.75;24.25;;;;;8.63;66.15;101415.53;5055008;28;45521;-72
2022/12/07 14:24:42;;;;;;;;;32.25;30.75;;;;;8.59;66.18;101412.03;5054992;28;46440;-74
2022/12/07 14:27:17;;;;;;;;;30.50;30.50;;;;;8.70;65.89;101407.28;5055410;28;45229;-73
2022/12/07 14:29:43;;;;;;;;;33.75;28.25;;;;;8.95;65.42;101406.59;5054842;28;45213;-74
2022/12/07 14:32:29;;;;;;;;;33.25;31.50;;;;;9.00;65.12;101391.31;5036938;28;45225;-73
2022/12/07 14:34:54;;;;;;;;;27.75;25.50;;;;;9.10;64.36;101420.41;5058224;28;45375;-74
2022/12/07 14:37:20;;;;;;;;;27.00;24.75;;;;;9.06;64.15;101412.53;5058477;28;45446;-71
2022/12/07 14:39:46;;;;;;;;;23.25;22.00;;;;;9.02;64.29;101405.50;5058323;28;45470;-74
2022/12/07 14:42:11;;;;;;;;;20.00;20.00;;;;;9.08;64.54;101406.22;5058401;28;45344;-74
2022/12/07 14:44:36;;;;;;;;;21.00;19.75;;;;;9.18;64.37;101400.59;5058805;28;46303;-74
2022/12/07 14:47:02;;;;;;;;;23.25;21.00;;;;;9.29;63.89;101399.34;5058806;28;45354;-72
2022/12/07 14:49:27;;;;;;;;;22.50;22.25;;;;;9.38;63.39;101393.72;5059286;28;45332;-73
2022/12/07 14:51:53;;;;;;;;;30.50;23.25;;;;;9.47;63.53;101409.50;5058396;28;45404;-73
2022/12/07 14:54:21;;;;;;;;;22.50;19.25;;;;;9.47;63.63;101403.25;5058685;28;46147;-73
2022/12/07 14:56:49;;;;;;;;;21.75;21.00;;;;;9.42;63.15;101392.72;5059022;28;45535;-72
2022/12/07 14:59:15;;;;;;;;;31.25;23.75;;;;;9.31;63.39;101397.50;5059216;28;45404;-73
2022/12/07 15:01:41;;;;;;;;;23.00;19.25;;;;;9.09;63.55;101367.84;5058153;28;45324;-73
2022/12/07 15:04:06;;;;;;;;;20.25;19.75;;;;;9.13;63.56;101395.38;5059182;28;45343;-73
2022/12/07 15:06:32;;;;;;;;;25.00;23.00;;;;;9.04;64.42;101398.31;5058545;28;45369;-73
2022/12/07 15:08:57;;;;;;;;;21.50;20.25;;;;;8.94;64.54;101389.69;5040805;28;45466;-72
2022/12/07 15:11:23;;;;;;;;;24.75;20.75;;;;;8.82;65.00;101381.16;5058257;28;45615;-74
2022/12/07 15:16:32;;;;;;;;;20.75;20.75;;;;;8.77;65.24;101388.41;5058221;28;45418;-74
2022/12/07 15:18:58;;;;;;;;;18.50;14.25;;;;;8.72;65.09;101384.09;5059118;28;45620;-74
2022/12/07 15:21:23;;;;;;;;;21.00;17.25;;;;;8.69;65.44;101392.16;5059379;28;45420;-73
2022/12/07 15:23:49;;;;;;;;;20.50;20.00;;;;;8.62;65.45;101379.91;5059183;28;45831;-71
2022/12/07 15:26:14;;;;;;;;;27.75;24.50;;;;;8.46;66.06;101367.88;5058616;28;45250;-72
2022/12/07 15:28:41;;;;;;;;;23.50;23.50;;;;;8.43;66.18;101369.75;5058538;28;45545;-74
2022/12/07 15:31:14;;;;;;;;;20.00;19.00;;;;;8.05;66.54;101317.34;5059107;28;45351;-74
2022/12/07 15:33:39;;;;;;;;;22.00;18.75;;;;;8.30;66.33;101379.88;5057694;28;46326;-74
2022/12/07 15:36:05;;;;;;;;;18.50;18.50;;;;;8.25;66.74;101379.13;5059128;28;45396;-74
2022/12/07 15:38:30;;;;;;;;;27.25;22.75;;;;;8.03;67.12;101360.09;5059065;28;45290;-73
2022/12/07 15:40:56;;;;;;;;;18.50;18.25;;;;;8.08;67.24;101381.34;5059616;28;45269;-73
2022/12/07 15:46:05;;;;;;;;;25.25;23.50;;;;;7.80;67.97;101350.00;5061843;28;45525;-74
2022/12/07 15:48:31;;;;;;;;;20.00;18.75;;;;;7.90;68.49;101380.91;5061083;28;45183;-73
2022/12/07 15:51:05;;;;;;;;;23.50;16.50;;;;;7.84;67.83;101362.34;5060526;28;45489;-73
2022/12/07 15:53:31;;;;;;;;;20.50;17.00;;;;;7.83;68.57;101375.72;5060714;28;45914;-75
2022/12/07 15:55:56;;;;;;;;;21.50;16.50;;;;;7.74;68.86;101373.31;5058544;28;45323;-72
2022/12/07 15:58:21;;;;;;;;;27.75;23.00;;;;;7.72;68.92;101369.78;5058635;28;45257;-73
2022/12/07 16:00:47;;;;;;;;;15.75;13.75;;;;;7.74;68.83;101371.47;5058046;28;45334;-73
2022/12/07 16:03:13;;;;;;;;;20.25;17.25;;;;;7.78;69.01;101377.63;5057592;28;46670;-74
2022/12/07 16:05:38;;;;;;;;;24.50;18.00;;;;;7.75;68.76;101367.91;5058781;28;45244;-73
2022/12/07 16:08:04;;;;;;;;;18.75;18.00;;;;;7.75;69.26;101365.22;5040227;28;45237;-73
2022/12/07 16:10:29;;;;;;;;;20.00;18.50;;;;;7.71;68.63;101352.03;5057610;28;45485;-73
2022/12/07 16:12:55;;;;;;;;;27.00;22.00;;;;;7.69;69.22;101370.72;5058193;28;45494;-72
2022/12/07 16:15:20;;;;;;;;;20.75;19.75;;;;;7.68;69.19;101363.63;5053796;28;45474;-73
2022/12/07 16:17:46;;;;;;;;;22.75;20.00;;;;;7.69;68.79;101369.84;5057701;28;45526;-73
2022/12/07 16:20:11;;;;;;;;;21.25;20.00;;;;;7.69;69.34;101368.06;5057597;28;45371;-74
2022/12/07 16:22:37;;;;;;;;;16.50;14.50;;;;;7.68;69.05;101368.97;5057407;28;46224;-74
2022/12/07 16:25:03;;;;;;;;;23.75;19.25;;;;;7.58;69.58;101348.75;5057221;28;45450;-73
2022/12/07 16:27:28;;;;;;;;;26.25;22.50;;;;;7.64;69.61;101356.63;5057064;28;45319;-73
2022/12/07 16:29:53;;;;;;;;;23.25;21.75;;;;;7.68;69.51;101363.63;5057087;28;45316;-73
2022/12/07 16:32:19;;;;;;;;;14.50;13.50;;;;;7.75;69.32;101361.69;5056639;28;45734;-73
2022/12/07 16:34:44;;;;;;;;;25.00;21.50;;;;;7.74;69.50;101360.81;5057036;28;45430;-75
2022/12/07 16:37:09;;;;;;;;;21.75;21.75;;;;;7.76;69.34;101361.66;5057197;28;45407;-73
2022/12/07 16:39:35;;;;;;;;;22.00;19.50;;;;;7.73;69.54;101356.41;5056549;28;45323;-74
2022/12/07 16:42:00;;;;;;;;;21.50;16.50;;;;;7.66;69.46;101344.09;5057424;28;46074;-73
2022/12/07 16:44:26;;;;;;;;;29.50;27.25;;;;;7.68;69.61;101355.63;5057771;28;45455;-74
2022/12/07 16:46:51;;;;;;;;;24.00;22.00;;;;;7.64;69.89;101353.09;5056963;28;45283;-75
2022/12/07 16:49:16;;;;;;;;;27.75;22.50;;;;;7.52;69.87;101338.22;5056141;28;45544;-73
2022/12/07 16:51:46;;;;;;;;;28.00;26.25;;;;;7.50;70.53;101340.06;5057632;28;45298;-74
2022/12/07 16:54:12;;;;;;;;;26.25;24.25;;;;;7.55;70.69;101349.72;5057068;28;45485;-73
2022/12/07 16:56:37;;;;;;;;;28.00;27.75;;;;;7.55;70.30;101344.38;5055239;28;45292;-73
2022/12/07 16:59:03;;;;;;;;;32.00;28.50;;;;;7.48;70.51;101339.25;5056896;28;45544;-77
2022/12/07 17:01:29;;;;;;;;;24.75;24.75;;;;;7.56;70.38;101356.81;5056100;28;46080;-76
2022/12/07 17:03:55;;;;;;;;;26.25;24.75;;;;;7.60;70.77;101352.28;5057749;28;45336;-74
2022/12/07 17:06:23;;;;;;;;;26.75;25.25;;;;;7.63;70.44;101349.53;5058848;28;45186;-73
2022/12/07 17:08:50;;;;;;;;;27.50;24.25;;;;;7.63;70.20;101346.88;5058267;28;45486;-75
2022/12/07 17:11:22;;;;;;;;;34.25;28.50;;;;;7.68;70.60;101346.75;5058596;28;45441;-74